sensor_id;sensor_type;location;lat;lon;timestamp;P1;durP1;ratioP1;P2;durP2;ratioP2
63784;SDS011;49927;48.146;11.420;2023-02-28T00:00:26;4.97;;;2.83;;
63784;SDS011;49927;48.146;11.420;2023-02-28T00:02:53;7.78;;;3.53;;
63784;SDS011;49927;48.146;11.420;2023-02-28T00:05:21;6.00;;;2.92;;
63784;SDS011;49927;48.146;11.420;2023-02-28T00:07:47;5.15;;;3.40;;
63784;SDS011;49927;48.146;11.420;2023-02-28T00:10:14;4.35;;;2.75;;
63784;SDS011;49927;48.146;11.420;2023-02-28T00:12:41;4.85;;;3.08;;
63784;SDS011;49927;48.146;11.420;2023-02-28T00:15:07;4.47;;;2.90;;
63784;SDS011;49927;48.146;11.420;2023-02-28T00:17:33;5.18;;;3.03;;
63784;SDS011;49927;48.146;11.420;2023-02-28T00:20:00;5.88;;;3.13;;
63784;SDS011;49927;48.146;11.420;2023-02-28T00:22:26;8.40;;;4.10;;
63784;SDS011;49927;48.146;11.420;2023-02-28T00:24:51;5.03;;;3.08;;
63784;SDS011;49927;48.146;11.420;2023-02-28T00:27:17;4.45;;;2.75;;
63784;SDS011;49927;48.146;11.420;2023-02-28T00:29:42;5.88;;;3.33;;
63784;SDS011;49927;48.146;11.420;2023-02-28T00:32:08;6.60;;;3.55;;
63784;SDS011;49927;48.146;11.420;2023-02-28T00:34:33;7.28;;;3.85;;
63784;SDS011;49927;48.146;11.420;2023-02-28T00:37:00;7.85;;;3.58;;
63784;SDS011;49927;48.146;11.420;2023-02-28T00:39:26;7.28;;;3.70;;
63784;SDS011;49927;48.146;11.420;2023-02-28T00:41:51;8.48;;;3.92;;
63784;SDS011;49927;48.146;11.420;2023-02-28T00:44:16;4.50;;;3.17;;
63784;SDS011;49927;48.146;11.420;2023-02-28T00:46:42;8.32;;;3.67;;
63784;SDS011;49927;48.146;11.420;2023-02-28T00:49:07;3.92;;;2.60;;
63784;SDS011;49927;48.146;11.420;2023-02-28T00:51:33;6.90;;;4.03;;
63784;SDS011;49927;48.146;11.420;2023-02-28T00:54:00;8.27;;;3.45;;
63784;SDS011;49927;48.146;11.420;2023-02-28T00:56:25;4.60;;;3.15;;
63784;SDS011;49927;48.146;11.420;2023-02-28T00:58:51;7.72;;;3.72;;
63784;SDS011;49927;48.146;11.420;2023-02-28T01:01:16;8.90;;;3.50;;
63784;SDS011;49927;48.146;11.420;2023-02-28T01:03:42;6.53;;;4.07;;
63784;SDS011;49927;48.146;11.420;2023-02-28T01:06:10;7.90;;;3.83;;
63784;SDS011;49927;48.146;11.420;2023-02-28T01:08:35;4.70;;;2.88;;
63784;SDS011;49927;48.146;11.420;2023-02-28T01:11:08;9.52;;;4.30;;
63784;SDS011;49927;48.146;11.420;2023-02-28T01:13:34;5.43;;;3.22;;
63784;SDS011;49927;48.146;11.420;2023-02-28T01:15:59;4.75;;;3.05;;
63784;SDS011;49927;48.146;11.420;2023-02-28T01:18:25;8.15;;;3.88;;
63784;SDS011;49927;48.146;11.420;2023-02-28T01:20:50;6.30;;;3.40;;
63784;SDS011;49927;48.146;11.420;2023-02-28T01:23:16;6.30;;;3.15;;
63784;SDS011;49927;48.146;11.420;2023-02-28T01:25:42;6.53;;;4.03;;
63784;SDS011;49927;48.146;11.420;2023-02-28T01:28:08;6.07;;;3.78;;
63784;SDS011;49927;48.146;11.420;2023-02-28T01:30:34;6.75;;;3.42;;
63784;SDS011;49927;48.146;11.420;2023-02-28T01:32:59;11.68;;;4.60;;
63784;SDS011;49927;48.146;11.420;2023-02-28T01:35:25;7.28;;;4.13;;
63784;SDS011;49927;48.146;11.420;2023-02-28T01:37:50;5.15;;;3.42;;
63784;SDS011;49927;48.146;11.420;2023-02-28T01:40:16;8.00;;;3.72;;
63784;SDS011;49927;48.146;11.420;2023-02-28T01:42:42;6.75;;;3.85;;
63784;SDS011;49927;48.146;11.420;2023-02-28T01:45:16;8.02;;;4.00;;
63784;SDS011;49927;48.146;11.420;2023-02-28T01:47:44;7.13;;;3.58;;
63784;SDS011;49927;48.146;11.420;2023-02-28T01:50:11;6.13;;;3.67;;
63784;SDS011;49927;48.146;11.420;2023-02-28T01:52:40;6.90;;;3.15;;
63784;SDS011;49927;48.146;11.420;2023-02-28T01:55:06;7.80;;;4.38;;
63784;SDS011;49927;48.146;11.420;2023-02-28T01:57:33;6.40;;;4.32;;
63784;SDS011;49927;48.146;11.420;2023-02-28T02:00:00;7.40;;;3.88;;
63784;SDS011;49927;48.146;11.420;2023-02-28T02:02:30;10.38;;;4.80;;
63784;SDS011;49927;48.146;11.420;2023-02-28T02:04:56;7.68;;;4.55;;
63784;SDS011;49927;48.146;11.420;2023-02-28T02:07:24;5.93;;;3.50;;
63784;SDS011;49927;48.146;11.420;2023-02-28T02:09:50;5.90;;;3.25;;
63784;SDS011;49927;48.146;11.420;2023-02-28T02:12:25;7.07;;;3.90;;
63784;SDS011;49927;48.146;11.420;2023-02-28T02:14:58;10.88;;;3.95;;
63784;SDS011;49927;48.146;11.420;2023-02-28T02:17:28;8.38;;;4.35;;
63784;SDS011;49927;48.146;11.420;2023-02-28T02:20:16;9.52;;;3.80;;
63784;SDS011;49927;48.146;11.420;2023-02-28T02:25:58;10.23;;;3.38;;
63784;SDS011;49927;48.146;11.420;2023-02-28T02:28:48;4.18;;;3.17;;
63784;SDS011;49927;48.146;11.420;2023-02-28T02:31:33;5.88;;;3.67;;
63784;SDS011;49927;48.146;11.420;2023-02-28T02:34:10;8.77;;;4.28;;
63784;SDS011;49927;48.146;11.420;2023-02-28T02:36:48;7.57;;;4.53;;
63784;SDS011;49927;48.146;11.420;2023-02-28T02:39:17;7.32;;;4.00;;
63784;SDS011;49927;48.146;11.420;2023-02-28T02:41:47;8.07;;;4.45;;
63784;SDS011;49927;48.146;11.420;2023-02-28T02:44:18;8.27;;;4.85;;
63784;SDS011;49927;48.146;11.420;2023-02-28T02:46:46;5.60;;;3.70;;
63784;SDS011;49927;48.146;11.420;2023-02-28T02:49:15;7.13;;;3.67;;
63784;SDS011;49927;48.146;11.420;2023-02-28T02:51:41;9.57;;;4.13;;
63784;SDS011;49927;48.146;11.420;2023-02-28T02:54:08;11.45;;;4.47;;
63784;SDS011;49927;48.146;11.420;2023-02-28T02:56:36;5.75;;;2.50;;
63784;SDS011;49927;48.146;11.420;2023-02-28T02:59:11;6.13;;;3.60;;
63784;SDS011;49927;48.146;11.420;2023-02-28T03:01:39;6.78;;;3.72;;
63784;SDS011;49927;48.146;11.420;2023-02-28T03:04:07;8.02;;;4.03;;
63784;SDS011;49927;48.146;11.420;2023-02-28T03:06:34;7.70;;;4.00;;
63784;SDS011;49927;48.146;11.420;2023-02-28T03:09:00;7.22;;;3.83;;
63784;SDS011;49927;48.146;11.420;2023-02-28T03:11:26;4.25;;;2.78;;
63784;SDS011;49927;48.146;11.420;2023-02-28T03:13:54;7.20;;;4.43;;
63784;SDS011;49927;48.146;11.420;2023-02-28T03:16:34;6.05;;;3.97;;
63784;SDS011;49927;48.146;11.420;2023-02-28T03:19:09;10.20;;;5.00;;
63784;SDS011;49927;48.146;11.420;2023-02-28T03:21:52;7.05;;;3.63;;
63784;SDS011;49927;48.146;11.420;2023-02-28T03:24:25;7.28;;;3.45;;
63784;SDS011;49927;48.146;11.420;2023-02-28T03:26:56;8.15;;;4.00;;
63784;SDS011;49927;48.146;11.420;2023-02-28T03:29:24;8.65;;;4.55;;
63784;SDS011;49927;48.146;11.420;2023-02-28T03:31:53;9.65;;;4.18;;
63784;SDS011;49927;48.146;11.420;2023-02-28T03:34:22;11.02;;;3.80;;
63784;SDS011;49927;48.146;11.420;2023-02-28T03:36:52;7.15;;;3.95;;
63784;SDS011;49927;48.146;11.420;2023-02-28T03:39:20;7.82;;;4.35;;
63784;SDS011;49927;48.146;11.420;2023-02-28T03:41:49;9.25;;;4.63;;
63784;SDS011;49927;48.146;11.420;2023-02-28T03:44:19;6.97;;;4.47;;
63784;SDS011;49927;48.146;11.420;2023-02-28T03:46:48;6.75;;;3.90;;
63784;SDS011;49927;48.146;11.420;2023-02-28T03:49:17;11.32;;;4.82;;
63784;SDS011;49927;48.146;11.420;2023-02-28T03:51:45;9.27;;;4.55;;
63784;SDS011;49927;48.146;11.420;2023-02-28T03:54:13;7.72;;;4.57;;
63784;SDS011;49927;48.146;11.420;2023-02-28T03:56:42;7.90;;;4.22;;
63784;SDS011;49927;48.146;11.420;2023-02-28T03:59:12;12.68;;;6.07;;
63784;SDS011;49927;48.146;11.420;2023-02-28T04:01:39;10.25;;;3.67;;
63784;SDS011;49927;48.146;11.420;2023-02-28T04:04:06;10.10;;;5.55;;
63784;SDS011;49927;48.146;11.420;2023-02-28T04:06:32;9.65;;;4.43;;
63784;SDS011;49927;48.146;11.420;2023-02-28T04:08:59;9.30;;;5.35;;
63784;SDS011;49927;48.146;11.420;2023-02-28T04:11:27;10.63;;;4.53;;
63784;SDS011;49927;48.146;11.420;2023-02-28T04:13:55;9.38;;;4.78;;
63784;SDS011;49927;48.146;11.420;2023-02-28T04:16:21;11.40;;;5.35;;
63784;SDS011;49927;48.146;11.420;2023-02-28T04:18:46;10.75;;;5.55;;
63784;SDS011;49927;48.146;11.420;2023-02-28T04:21:12;9.63;;;4.25;;
63784;SDS011;49927;48.146;11.420;2023-02-28T04:23:37;11.18;;;5.80;;
63784;SDS011;49927;48.146;11.420;2023-02-28T04:26:03;11.13;;;5.82;;
63784;SDS011;49927;48.146;11.420;2023-02-28T04:28:30;9.52;;;5.70;;
63784;SDS011;49927;48.146;11.420;2023-02-28T04:30:56;13.00;;;5.22;;
63784;SDS011;49927;48.146;11.420;2023-02-28T04:33:22;15.48;;;6.53;;
63784;SDS011;49927;48.146;11.420;2023-02-28T04:35:48;11.07;;;5.90;;
63784;SDS011;49927;48.146;11.420;2023-02-28T04:38:13;16.95;;;6.90;;
63784;SDS011;49927;48.146;11.420;2023-02-28T04:40:39;12.75;;;5.82;;
63784;SDS011;49927;48.146;11.420;2023-02-28T04:43:04;14.35;;;6.32;;
63784;SDS011;49927;48.146;11.420;2023-02-28T04:45:31;11.07;;;5.47;;
63784;SDS011;49927;48.146;11.420;2023-02-28T04:47:57;10.98;;;5.20;;
63784;SDS011;49927;48.146;11.420;2023-02-28T04:50:22;10.50;;;4.40;;
63784;SDS011;49927;48.146;11.420;2023-02-28T04:52:48;12.90;;;6.93;;
63784;SDS011;49927;48.146;11.420;2023-02-28T04:55:13;8.98;;;5.63;;
63784;SDS011;49927;48.146;11.420;2023-02-28T04:57:39;14.25;;;6.45;;
63784;SDS011;49927;48.146;11.420;2023-02-28T05:00:05;12.40;;;6.50;;
63784;SDS011;49927;48.146;11.420;2023-02-28T05:02:32;10.98;;;5.85;;
63784;SDS011;49927;48.146;11.420;2023-02-28T05:04:59;12.73;;;6.47;;
63784;SDS011;49927;48.146;11.420;2023-02-28T05:07:24;12.35;;;6.20;;
63784;SDS011;49927;48.146;11.420;2023-02-28T05:09:50;14.10;;;6.65;;
63784;SDS011;49927;48.146;11.420;2023-02-28T05:12:15;8.77;;;5.82;;
63784;SDS011;49927;48.146;11.420;2023-02-28T05:14:41;14.82;;;6.57;;
63784;SDS011;49927;48.146;11.420;2023-02-28T05:17:06;15.90;;;6.43;;
63784;SDS011;49927;48.146;11.420;2023-02-28T05:19:34;18.80;;;7.85;;
63784;SDS011;49927;48.146;11.420;2023-02-28T05:21:59;13.05;;;5.63;;
63784;SDS011;49927;48.146;11.420;2023-02-28T05:24:25;15.95;;;6.60;;
63784;SDS011;49927;48.146;11.420;2023-02-28T05:26:51;16.13;;;6.95;;
63784;SDS011;49927;48.146;11.420;2023-02-28T05:29:17;14.82;;;7.60;;
63784;SDS011;49927;48.146;11.420;2023-02-28T05:31:44;18.73;;;8.27;;
63784;SDS011;49927;48.146;11.420;2023-02-28T05:34:09;11.77;;;5.25;;
63784;SDS011;49927;48.146;11.420;2023-02-28T05:36:36;21.13;;;7.28;;
63784;SDS011;49927;48.146;11.420;2023-02-28T05:39:02;12.13;;;7.95;;
63784;SDS011;49927;48.146;11.420;2023-02-28T05:41:28;18.45;;;7.95;;
63784;SDS011;49927;48.146;11.420;2023-02-28T05:43:53;19.02;;;8.20;;
63784;SDS011;49927;48.146;11.420;2023-02-28T05:46:19;15.48;;;7.63;;
63784;SDS011;49927;48.146;11.420;2023-02-28T05:48:46;14.80;;;7.18;;
63784;SDS011;49927;48.146;11.420;2023-02-28T05:51:12;21.40;;;9.50;;
63784;SDS011;49927;48.146;11.420;2023-02-28T05:53:38;20.90;;;9.20;;
63784;SDS011;49927;48.146;11.420;2023-02-28T05:56:04;14.45;;;6.35;;
63784;SDS011;49927;48.146;11.420;2023-02-28T05:58:30;10.90;;;5.55;;
63784;SDS011;49927;48.146;11.420;2023-02-28T06:00:56;18.63;;;8.55;;
63784;SDS011;49927;48.146;11.420;2023-02-28T06:03:22;13.73;;;7.65;;
63784;SDS011;49927;48.146;11.420;2023-02-28T06:05:47;16.63;;;7.82;;
63784;SDS011;49927;48.146;11.420;2023-02-28T06:08:12;18.90;;;9.63;;
63784;SDS011;49927;48.146;11.420;2023-02-28T06:10:39;18.80;;;9.13;;
63784;SDS011;49927;48.146;11.420;2023-02-28T06:13:05;18.60;;;9.57;;
63784;SDS011;49927;48.146;11.420;2023-02-28T06:15:31;20.98;;;9.88;;
63784;SDS011;49927;48.146;11.420;2023-02-28T06:17:57;25.63;;;10.77;;
63784;SDS011;49927;48.146;11.420;2023-02-28T06:20:23;23.40;;;10.00;;
63784;SDS011;49927;48.146;11.420;2023-02-28T06:22:48;18.23;;;9.13;;
63784;SDS011;49927;48.146;11.420;2023-02-28T06:25:14;24.00;;;10.40;;
63784;SDS011;49927;48.146;11.420;2023-02-28T06:27:41;21.95;;;11.27;;
63784;SDS011;49927;48.146;11.420;2023-02-28T06:30:07;16.67;;;8.07;;
63784;SDS011;49927;48.146;11.420;2023-02-28T06:32:33;21.20;;;9.45;;
63784;SDS011;49927;48.146;11.420;2023-02-28T06:34:59;17.88;;;8.60;;
63784;SDS011;49927;48.146;11.420;2023-02-28T06:37:24;23.30;;;12.55;;
63784;SDS011;49927;48.146;11.420;2023-02-28T06:39:50;20.13;;;10.52;;
63784;SDS011;49927;48.146;11.420;2023-02-28T06:42:15;28.00;;;12.88;;
63784;SDS011;49927;48.146;11.420;2023-02-28T06:44:42;23.30;;;11.38;;
63784;SDS011;49927;48.146;11.420;2023-02-28T06:47:08;21.73;;;10.82;;
63784;SDS011;49927;48.146;11.420;2023-02-28T06:49:34;22.35;;;11.30;;
63784;SDS011;49927;48.146;11.420;2023-02-28T06:52:00;24.45;;;11.38;;
63784;SDS011;49927;48.146;11.420;2023-02-28T06:54:26;23.27;;;12.48;;
63784;SDS011;49927;48.146;11.420;2023-02-28T06:56:51;25.73;;;12.23;;
63784;SDS011;49927;48.146;11.420;2023-02-28T06:59:17;23.08;;;10.77;;
63784;SDS011;49927;48.146;11.420;2023-02-28T07:01:44;21.52;;;11.13;;
63784;SDS011;49927;48.146;11.420;2023-02-28T07:04:09;24.50;;;9.77;;
63784;SDS011;49927;48.146;11.420;2023-02-28T07:06:35;28.15;;;11.90;;
63784;SDS011;49927;48.146;11.420;2023-02-28T07:09:00;16.33;;;8.55;;
63784;SDS011;49927;48.146;11.420;2023-02-28T07:11:26;23.90;;;10.88;;
63784;SDS011;49927;48.146;11.420;2023-02-28T07:13:52;25.15;;;12.25;;
63784;SDS011;49927;48.146;11.420;2023-02-28T07:16:18;17.95;;;9.98;;
63784;SDS011;49927;48.146;11.420;2023-02-28T07:18:45;19.17;;;10.50;;
63784;SDS011;49927;48.146;11.420;2023-02-28T07:21:11;25.48;;;11.80;;
63784;SDS011;49927;48.146;11.420;2023-02-28T07:23:37;24.00;;;12.95;;
63784;SDS011;49927;48.146;11.420;2023-02-28T07:26:03;23.05;;;9.55;;
63784;SDS011;49927;48.146;11.420;2023-02-28T07:28:29;26.48;;;12.95;;
63784;SDS011;49927;48.146;11.420;2023-02-28T07:30:55;28.58;;;13.50;;
63784;SDS011;49927;48.146;11.420;2023-02-28T07:33:20;24.95;;;11.50;;
63784;SDS011;49927;48.146;11.420;2023-02-28T07:35:47;24.27;;;11.77;;
63784;SDS011;49927;48.146;11.420;2023-02-28T07:38:12;25.48;;;10.95;;
63784;SDS011;49927;48.146;11.420;2023-02-28T07:40:38;19.63;;;10.95;;
63784;SDS011;49927;48.146;11.420;2023-02-28T07:43:03;27.15;;;12.10;;
63784;SDS011;49927;48.146;11.420;2023-02-28T07:45:29;26.15;;;12.40;;
63784;SDS011;49927;48.146;11.420;2023-02-28T07:47:55;25.08;;;12.60;;
63784;SDS011;49927;48.146;11.420;2023-02-28T07:50:21;15.65;;;8.40;;
63784;SDS011;49927;48.146;11.420;2023-02-28T07:52:48;26.00;;;12.88;;
63784;SDS011;49927;48.146;11.420;2023-02-28T07:55:13;22.02;;;10.82;;
63784;SDS011;49927;48.146;11.420;2023-02-28T07:57:39;24.13;;;12.07;;
63784;SDS011;49927;48.146;11.420;2023-02-28T08:00:06;20.50;;;7.50;;
63784;SDS011;49927;48.146;11.420;2023-02-28T08:02:33;33.47;;;13.75;;
63784;SDS011;49927;48.146;11.420;2023-02-28T08:04:59;21.27;;;10.43;;
63784;SDS011;49927;48.146;11.420;2023-02-28T08:07:25;22.33;;;11.13;;
63784;SDS011;49927;48.146;11.420;2023-02-28T08:09:52;25.40;;;12.65;;
63784;SDS011;49927;48.146;11.420;2023-02-28T08:12:17;17.77;;;7.28;;
63784;SDS011;49927;48.146;11.420;2023-02-28T08:14:43;25.23;;;12.25;;
63784;SDS011;49927;48.146;11.420;2023-02-28T08:17:09;22.55;;;11.10;;
63784;SDS011;49927;48.146;11.420;2023-02-28T08:19:35;21.67;;;11.00;;
63784;SDS011;49927;48.146;11.420;2023-02-28T08:22:00;20.17;;;11.02;;
63784;SDS011;49927;48.146;11.420;2023-02-28T08:24:26;24.35;;;14.15;;
63784;SDS011;49927;48.146;11.420;2023-02-28T08:26:53;26.13;;;13.93;;
63784;SDS011;49927;48.146;11.420;2023-02-28T08:29:18;25.55;;;12.48;;
63784;SDS011;49927;48.146;11.420;2023-02-28T08:31:44;27.75;;;13.80;;
63784;SDS011;49927;48.146;11.420;2023-02-28T08:34:10;23.20;;;10.93;;
63784;SDS011;49927;48.146;11.420;2023-02-28T08:36:42;30.00;;;13.23;;
63784;SDS011;49927;48.146;11.420;2023-02-28T08:39:11;31.83;;;14.07;;
63784;SDS011;49927;48.146;11.420;2023-02-28T08:41:37;24.70;;;12.27;;
63784;SDS011;49927;48.146;11.420;2023-02-28T08:44:05;22.15;;;10.63;;
63784;SDS011;49927;48.146;11.420;2023-02-28T08:46:31;22.70;;;11.63;;
63784;SDS011;49927;48.146;11.420;2023-02-28T08:48:57;25.38;;;12.27;;
63784;SDS011;49927;48.146;11.420;2023-02-28T08:51:28;21.98;;;11.82;;
63784;SDS011;49927;48.146;11.420;2023-02-28T08:53:54;22.00;;;11.18;;
63784;SDS011;49927;48.146;11.420;2023-02-28T08:56:21;26.83;;;13.48;;
63784;SDS011;49927;48.146;11.420;2023-02-28T08:58:47;26.75;;;12.23;;
63784;SDS011;49927;48.146;11.420;2023-02-28T09:01:15;25.83;;;12.90;;
63784;SDS011;49927;48.146;11.420;2023-02-28T09:03:42;31.05;;;14.32;;
63784;SDS011;49927;48.146;11.420;2023-02-28T09:06:12;23.10;;;12.00;;
63784;SDS011;49927;48.146;11.420;2023-02-28T09:08:41;16.10;;;7.90;;
63784;SDS011;49927;48.146;11.420;2023-02-28T09:11:07;22.05;;;11.55;;
63784;SDS011;49927;48.146;11.420;2023-02-28T09:13:47;22.05;;;10.75;;
63784;SDS011;49927;48.146;11.420;2023-02-28T09:16:20;22.80;;;11.55;;
63784;SDS011;49927;48.146;11.420;2023-02-28T09:19:12;19.52;;;10.07;;
63784;SDS011;49927;48.146;11.420;2023-02-28T09:21:38;16.73;;;7.88;;
63784;SDS011;49927;48.146;11.420;2023-02-28T09:24:03;29.98;;;12.25;;
63784;SDS011;49927;48.146;11.420;2023-02-28T09:26:29;26.13;;;12.85;;
63784;SDS011;49927;48.146;11.420;2023-02-28T09:28:55;24.30;;;11.48;;
63784;SDS011;49927;48.146;11.420;2023-02-28T09:31:23;23.58;;;12.40;;
63784;SDS011;49927;48.146;11.420;2023-02-28T09:33:50;23.80;;;11.77;;
63784;SDS011;49927;48.146;11.420;2023-02-28T09:36:16;30.25;;;14.48;;
63784;SDS011;49927;48.146;11.420;2023-02-28T09:38:42;32.15;;;13.25;;
63784;SDS011;49927;48.146;11.420;2023-02-28T09:41:10;22.02;;;11.23;;
63784;SDS011;49927;48.146;11.420;2023-02-28T09:43:38;22.42;;;12.20;;
63784;SDS011;49927;48.146;11.420;2023-02-28T09:46:08;20.40;;;10.18;;
63784;SDS011;49927;48.146;11.420;2023-02-28T09:48:41;24.42;;;10.50;;
63784;SDS011;49927;48.146;11.420;2023-02-28T09:51:12;25.38;;;12.98;;
63784;SDS011;49927;48.146;11.420;2023-02-28T09:53:41;26.83;;;12.60;;
63784;SDS011;49927;48.146;11.420;2023-02-28T09:56:10;26.45;;;12.77;;
63784;SDS011;49927;48.146;11.420;2023-02-28T09:58:50;20.65;;;12.63;;
63784;SDS011;49927;48.146;11.420;2023-02-28T10:01:24;20.92;;;11.50;;
63784;SDS011;49927;48.146;11.420;2023-02-28T10:03:56;23.27;;;13.05;;
63784;SDS011;49927;48.146;11.420;2023-02-28T10:06:22;23.58;;;11.43;;
63784;SDS011;49927;48.146;11.420;2023-02-28T10:08:56;27.92;;;12.32;;
63784;SDS011;49927;48.146;11.420;2023-02-28T10:11:23;28.73;;;12.32;;
63784;SDS011;49927;48.146;11.420;2023-02-28T10:13:51;22.13;;;10.65;;
63784;SDS011;49927;48.146;11.420;2023-02-28T10:16:21;26.10;;;12.25;;
63784;SDS011;49927;48.146;11.420;2023-02-28T10:18:51;30.45;;;14.38;;
63784;SDS011;49927;48.146;11.420;2023-02-28T10:21:21;24.17;;;12.80;;
63784;SDS011;49927;48.146;11.420;2023-02-28T10:23:53;24.98;;;13.02;;
63784;SDS011;49927;48.146;11.420;2023-02-28T10:26:35;19.73;;;11.45;;
63784;SDS011;49927;48.146;11.420;2023-02-28T10:29:19;28.23;;;13.05;;
63784;SDS011;49927;48.146;11.420;2023-02-28T10:31:44;25.42;;;13.63;;
63784;SDS011;49927;48.146;11.420;2023-02-28T10:34:12;27.67;;;13.48;;
63784;SDS011;49927;48.146;11.420;2023-02-28T10:36:48;26.20;;;13.75;;
63784;SDS011;49927;48.146;11.420;2023-02-28T10:42:02;21.33;;;12.68;;
63784;SDS011;49927;48.146;11.420;2023-02-28T10:44:28;26.65;;;13.05;;
63784;SDS011;49927;48.146;11.420;2023-02-28T10:46:53;26.35;;;14.25;;
63784;SDS011;49927;48.146;11.420;2023-02-28T10:49:20;28.10;;;14.75;;
63784;SDS011;49927;48.146;11.420;2023-02-28T10:51:57;24.13;;;13.02;;
63784;SDS011;49927;48.146;11.420;2023-02-28T10:54:59;29.38;;;13.65;;
63784;SDS011;49927;48.146;11.420;2023-02-28T10:57:24;25.55;;;12.77;;
63784;SDS011;49927;48.146;11.420;2023-02-28T10:59:50;25.50;;;12.85;;
63784;SDS011;49927;48.146;11.420;2023-02-28T11:02:30;26.13;;;13.38;;
63784;SDS011;49927;48.146;11.420;2023-02-28T11:04:58;23.50;;;12.57;;
63784;SDS011;49927;48.146;11.420;2023-02-28T11:07:25;24.70;;;13.65;;
63784;SDS011;49927;48.146;11.420;2023-02-28T11:09:51;22.67;;;12.80;;
63784;SDS011;49927;48.146;11.420;2023-02-28T11:12:34;24.02;;;12.70;;
63784;SDS011;49927;48.146;11.420;2023-02-28T11:15:21;25.08;;;13.05;;
63784;SDS011;49927;48.146;11.420;2023-02-28T11:17:52;37.25;;;13.68;;
63784;SDS011;49927;48.146;11.420;2023-02-28T11:20:20;18.88;;;11.35;;
63784;SDS011;49927;48.146;11.420;2023-02-28T11:22:48;22.48;;;12.48;;
63784;SDS011;49927;48.146;11.420;2023-02-28T11:25:16;28.77;;;13.63;;
63784;SDS011;49927;48.146;11.420;2023-02-28T11:27:46;22.90;;;11.98;;
63784;SDS011;49927;48.146;11.420;2023-02-28T11:30:23;23.25;;;11.55;;
63784;SDS011;49927;48.146;11.420;2023-02-28T11:32:50;18.00;;;10.05;;
63784;SDS011;49927;48.146;11.420;2023-02-28T11:35:17;21.45;;;11.82;;
63784;SDS011;49927;48.146;11.420;2023-02-28T11:37:49;21.25;;;12.55;;
63784;SDS011;49927;48.146;11.420;2023-02-28T11:40:15;28.13;;;13.57;;
63784;SDS011;49927;48.146;11.420;2023-02-28T11:42:46;22.15;;;12.88;;
63784;SDS011;49927;48.146;11.420;2023-02-28T11:45:18;20.00;;;11.40;;
63784;SDS011;49927;48.146;11.420;2023-02-28T11:47:55;24.27;;;12.77;;
63784;SDS011;49927;48.146;11.420;2023-02-28T11:50:30;27.73;;;13.77;;
63784;SDS011;49927;48.146;11.420;2023-02-28T11:53:17;25.15;;;12.82;;
63784;SDS011;49927;48.146;11.420;2023-02-28T11:55:47;21.20;;;11.73;;
63784;SDS011;49927;48.146;11.420;2023-02-28T11:58:17;28.60;;;13.85;;
63784;SDS011;49927;48.146;11.420;2023-02-28T12:03:55;28.23;;;13.85;;
63784;SDS011;49927;48.146;11.420;2023-02-28T12:06:25;24.27;;;11.93;;
63784;SDS011;49927;48.146;11.420;2023-02-28T12:08:57;20.77;;;11.18;;
63784;SDS011;49927;48.146;11.420;2023-02-28T12:11:40;22.08;;;10.55;;
63784;SDS011;49927;48.146;11.420;2023-02-28T12:14:17;19.20;;;10.63;;
63784;SDS011;49927;48.146;11.420;2023-02-28T12:17:09;22.40;;;11.00;;
63784;SDS011;49927;48.146;11.420;2023-02-28T12:19:43;15.15;;;7.65;;
63784;SDS011;49927;48.146;11.420;2023-02-28T12:22:20;23.77;;;12.60;;
63784;SDS011;49927;48.146;11.420;2023-02-28T12:27:49;26.33;;;11.20;;
63784;SDS011;49927;48.146;11.420;2023-02-28T12:30:17;23.33;;;11.93;;
63784;SDS011;49927;48.146;11.420;2023-02-28T12:32:47;25.88;;;13.32;;
63784;SDS011;49927;48.146;11.420;2023-02-28T12:35:16;21.25;;;9.80;;
63784;SDS011;49927;48.146;11.420;2023-02-28T12:37:51;22.80;;;12.05;;
63784;SDS011;49927;48.146;11.420;2023-02-28T12:40:40;23.38;;;12.10;;
63784;SDS011;49927;48.146;11.420;2023-02-28T12:43:12;17.63;;;10.45;;
63784;SDS011;49927;48.146;11.420;2023-02-28T12:45:40;25.98;;;12.50;;
63784;SDS011;49927;48.146;11.420;2023-02-28T12:48:08;21.80;;;11.00;;
63784;SDS011;49927;48.146;11.420;2023-02-28T12:50:36;22.00;;;11.15;;
63784;SDS011;49927;48.146;11.420;2023-02-28T12:53:02;22.02;;;9.40;;
63784;SDS011;49927;48.146;11.420;2023-02-28T12:55:33;17.75;;;10.90;;
63784;SDS011;49927;48.146;11.420;2023-02-28T12:58:05;19.65;;;11.02;;
63784;SDS011;49927;48.146;11.420;2023-02-28T13:00:36;19.20;;;11.02;;
63784;SDS011;49927;48.146;11.420;2023-02-28T13:06:10;20.85;;;10.75;;
63784;SDS011;49927;48.146;11.420;2023-02-28T13:08:57;20.42;;;11.32;;
63784;SDS011;49927;48.146;11.420;2023-02-28T13:11:28;20.55;;;10.93;;
63784;SDS011;49927;48.146;11.420;2023-02-28T13:13:58;18.10;;;11.27;;
63784;SDS011;49927;48.146;11.420;2023-02-28T13:16:24;22.52;;;11.25;;
63784;SDS011;49927;48.146;11.420;2023-02-28T13:18:50;19.13;;;10.50;;
63784;SDS011;49927;48.146;11.420;2023-02-28T13:21:22;20.23;;;10.63;;
63784;SDS011;49927;48.146;11.420;2023-02-28T13:23:59;22.42;;;11.07;;
63784;SDS011;49927;48.146;11.420;2023-02-28T13:29:30;20.15;;;10.70;;
63784;SDS011;49927;48.146;11.420;2023-02-28T13:37:41;19.40;;;10.25;;
63784;SDS011;49927;48.146;11.420;2023-02-28T13:40:28;19.40;;;10.32;;
63784;SDS011;49927;48.146;11.420;2023-02-28T13:42:57;16.48;;;9.43;;
63784;SDS011;49927;48.146;11.420;2023-02-28T13:45:25;17.02;;;9.82;;
63784;SDS011;49927;48.146;11.420;2023-02-28T13:47:52;19.05;;;10.05;;
63784;SDS011;49927;48.146;11.420;2023-02-28T13:50:24;17.23;;;10.27;;
63784;SDS011;49927;48.146;11.420;2023-02-28T13:55:53;20.77;;;10.73;;
63784;SDS011;49927;48.146;11.420;2023-02-28T13:58:25;21.17;;;10.10;;
63784;SDS011;49927;48.146;11.420;2023-02-28T14:01:08;16.90;;;9.93;;
63784;SDS011;49927;48.146;11.420;2023-02-28T14:03:44;23.70;;;10.70;;
63784;SDS011;49927;48.146;11.420;2023-02-28T14:06:23;19.50;;;9.77;;
63784;SDS011;49927;48.146;11.420;2023-02-28T14:08:54;16.52;;;9.15;;
63784;SDS011;49927;48.146;11.420;2023-02-28T14:11:29;19.17;;;11.15;;
63784;SDS011;49927;48.146;11.420;2023-02-28T14:13:56;22.90;;;10.23;;
63784;SDS011;49927;48.146;11.420;2023-02-28T14:16:24;19.20;;;11.10;;
63784;SDS011;49927;48.146;11.420;2023-02-28T14:18:51;20.55;;;11.65;;
63784;SDS011;49927;48.146;11.420;2023-02-28T14:21:22;13.07;;;5.50;;
63784;SDS011;49927;48.146;11.420;2023-02-28T14:23:57;19.02;;;10.48;;
63784;SDS011;49927;48.146;11.420;2023-02-28T14:26:48;18.65;;;10.55;;
63784;SDS011;49927;48.146;11.420;2023-02-28T14:29:26;21.98;;;10.52;;
63784;SDS011;49927;48.146;11.420;2023-02-28T14:32:02;22.70;;;10.75;;
63784;SDS011;49927;48.146;11.420;2023-02-28T14:34:39;24.48;;;11.18;;
63784;SDS011;49927;48.146;11.420;2023-02-28T14:37:12;18.90;;;10.27;;
63784;SDS011;49927;48.146;11.420;2023-02-28T14:39:42;22.25;;;11.13;;
63784;SDS011;49927;48.146;11.420;2023-02-28T14:44:55;20.05;;;11.00;;
63784;SDS011;49927;48.146;11.420;2023-02-28T14:47:22;21.60;;;11.02;;
63784;SDS011;49927;48.146;11.420;2023-02-28T14:49:49;16.15;;;5.97;;
63784;SDS011;49927;48.146;11.420;2023-02-28T14:52:15;19.77;;;10.25;;
63784;SDS011;49927;48.146;11.420;2023-02-28T14:54:44;23.13;;;10.68;;
63784;SDS011;49927;48.146;11.420;2023-02-28T14:57:20;17.80;;;10.05;;